Albany, Ohio
Current Conditions -  °F | °C
As of 12:35 PM on Friday 24 Oct 2014 (Local Time) from KUNI Reporting Station
Clear Clear  
Wind Chill: 15°   Ceiling: Unl
Heat Index: 15°   Visibility: 10mi
Dew Point:   Wind: 0mph
Humidity: 54%   Direction: NA
Pressure: 30.11"   Gusts: NA
Location:  39.23°N, 82.2°W
Report Text: KUNI 241635Z AUTO 00000KT 10SM CLR 15/06 A3011 RMK AO2 T01520059
Loading
Personal Weather Stations






























Interactive Weather Map
Tropical Storm Tracking
New forecast layout! Learn more

10-Day Weather Forecast

Advertisements
Track Severe Weather on mobile